sensor_id;sensor_type;location;lat;lon;timestamp;temperature;humidity
82782;DHT22;72517;47.260;11.422;2024-01-27T00:00:44;8.20;99.90
82782;DHT22;72517;47.260;11.422;2024-01-27T00:03:13;8.10;99.90
82782;DHT22;72517;47.260;11.422;2024-01-27T00:05:40;8.10;99.90
82782;DHT22;72517;47.260;11.422;2024-01-27T00:08:06;8.10;99.90
82782;DHT22;72517;47.260;11.422;2024-01-27T00:10:34;8.10;99.90
82782;DHT22;72517;47.260;11.422;2024-01-27T00:13:00;8.00;99.90
82782;DHT22;72517;47.260;11.422;2024-01-27T00:15:28;7.90;99.90
82782;DHT22;72517;47.260;11.422;2024-01-27T00:17:54;7.80;99.90
82782;DHT22;72517;47.260;11.422;2024-01-27T00:20:21;7.60;99.90
82782;DHT22;72517;47.260;11.422;2024-01-27T00:22:49;7.50;99.90
82782;DHT22;72517;47.260;11.422;2024-01-27T00:25:15;7.40;99.90
82782;DHT22;72517;47.260;11.422;2024-01-27T00:27:42;7.20;99.90
82782;DHT22;72517;47.260;11.422;2024-01-27T00:30:09;7.20;99.90
82782;DHT22;72517;47.260;11.422;2024-01-27T00:32:37;7.10;99.90
82782;DHT22;72517;47.260;11.422;2024-01-27T00:35:04;7.10;99.90
82782;DHT22;72517;47.260;11.422;2024-01-27T00:37:31;7.00;99.90
82782;DHT22;72517;47.260;11.422;2024-01-27T00:39:58;6.90;99.90
82782;DHT22;72517;47.260;11.422;2024-01-27T00:42:25;6.90;99.90
82782;DHT22;72517;47.260;11.422;2024-01-27T00:44:52;6.80;99.90
82782;DHT22;72517;47.260;11.422;2024-01-27T00:47:19;6.70;99.90
82782;DHT22;72517;47.260;11.422;2024-01-27T00:49:46;6.60;99.90
82782;DHT22;72517;47.260;11.422;2024-01-27T00:52:13;6.50;99.90
82782;DHT22;72517;47.260;11.422;2024-01-27T00:54:40;6.50;99.90
82782;DHT22;72517;47.260;11.422;2024-01-27T00:57:07;6.50;99.90
82782;DHT22;72517;47.260;11.422;2024-01-27T00:59:34;6.40;99.90
82782;DHT22;72517;47.260;11.422;2024-01-27T01:02:01;6.40;99.90
82782;DHT22;72517;47.260;11.422;2024-01-27T01:04:28;6.40;99.90
82782;DHT22;72517;47.260;11.422;2024-01-27T01:06:55;6.40;99.90
82782;DHT22;72517;47.260;11.422;2024-01-27T01:09:21;6.40;99.90
82782;DHT22;72517;47.260;11.422;2024-01-27T01:11:48;6.40;99.90
82782;DHT22;72517;47.260;11.422;2024-01-27T01:14:15;6.40;99.90
82782;DHT22;72517;47.260;11.422;2024-01-27T01:16:42;6.40;99.90
82782;DHT22;72517;47.260;11.422;2024-01-27T01:19:09;6.40;99.90
82782;DHT22;72517;47.260;11.422;2024-01-27T01:21:36;6.40;99.90
82782;DHT22;72517;47.260;11.422;2024-01-27T01:24:03;6.40;99.90
82782;DHT22;72517;47.260;11.422;2024-01-27T01:26:30;6.40;99.90
82782;DHT22;72517;47.260;11.422;2024-01-27T01:28:57;6.40;99.90
82782;DHT22;72517;47.260;11.422;2024-01-27T01:31:24;6.40;99.90
82782;DHT22;72517;47.260;11.422;2024-01-27T01:33:50;6.40;99.90
82782;DHT22;72517;47.260;11.422;2024-01-27T01:36:17;6.50;99.90
82782;DHT22;72517;47.260;11.422;2024-01-27T01:38:44;6.50;99.90
82782;DHT22;72517;47.260;11.422;2024-01-27T01:41:11;6.50;99.90
82782;DHT22;72517;47.260;11.422;2024-01-27T01:43:38;6.50;99.90
82782;DHT22;72517;47.260;11.422;2024-01-27T01:46:05;6.50;99.90
82782;DHT22;72517;47.260;11.422;2024-01-27T01:48:32;6.50;99.90
82782;DHT22;72517;47.260;11.422;2024-01-27T01:51:00;6.60;99.90
82782;DHT22;72517;47.260;11.422;2024-01-27T01:53:27;6.60;99.90
82782;DHT22;72517;47.260;11.422;2024-01-27T01:55:54;6.60;99.90
82782;DHT22;72517;47.260;11.422;2024-01-27T01:58:21;6.70;99.90
82782;DHT22;72517;47.260;11.422;2024-01-27T02:00:48;6.70;99.90
82782;DHT22;72517;47.260;11.422;2024-01-27T02:03:15;6.70;99.90
82782;DHT22;72517;47.260;11.422;2024-01-27T02:05:42;6.80;99.90
82782;DHT22;72517;47.260;11.422;2024-01-27T02:08:09;6.70;99.90
82782;DHT22;72517;47.260;11.422;2024-01-27T02:10:36;6.80;99.90
82782;DHT22;72517;47.260;11.422;2024-01-27T02:13:19;6.70;99.90
82782;DHT22;72517;47.260;11.422;2024-01-27T02:15:47;6.70;99.90
82782;DHT22;72517;47.260;11.422;2024-01-27T02:18:15;6.70;99.90
82782;DHT22;72517;47.260;11.422;2024-01-27T02:20:42;6.60;99.90
82782;DHT22;72517;47.260;11.422;2024-01-27T02:23:09;6.60;99.90
82782;DHT22;72517;47.260;11.422;2024-01-27T02:25:36;6.60;99.90
82782;DHT22;72517;47.260;11.422;2024-01-27T02:28:03;6.60;99.90
82782;DHT22;72517;47.260;11.422;2024-01-27T02:30:30;6.60;99.90
82782;DHT22;72517;47.260;11.422;2024-01-27T02:32:57;6.60;99.90
82782;DHT22;72517;47.260;11.422;2024-01-27T02:35:24;6.60;99.90
82782;DHT22;72517;47.260;11.422;2024-01-27T02:37:51;6.60;99.90
82782;DHT22;72517;47.260;11.422;2024-01-27T02:40:18;6.60;99.90
82782;DHT22;72517;47.260;11.422;2024-01-27T02:42:45;6.60;99.90
82782;DHT22;72517;47.260;11.422;2024-01-27T02:45:12;6.60;99.90
82782;DHT22;72517;47.260;11.422;2024-01-27T02:47:39;6.60;99.90
82782;DHT22;72517;47.260;11.422;2024-01-27T02:50:06;6.50;99.90
82782;DHT22;72517;47.260;11.422;2024-01-27T02:52:34;6.50;99.90
82782;DHT22;72517;47.260;11.422;2024-01-27T02:55:01;6.40;99.90
82782;DHT22;72517;47.260;11.422;2024-01-27T02:57:28;6.30;99.90
82782;DHT22;72517;47.260;11.422;2024-01-27T02:59:54;6.20;99.90
82782;DHT22;72517;47.260;11.422;2024-01-27T03:02:20;6.10;99.90
82782;DHT22;72517;47.260;11.422;2024-01-27T03:04:47;6.10;99.90
82782;DHT22;72517;47.260;11.422;2024-01-27T03:07:14;6.00;99.90
82782;DHT22;72517;47.260;11.422;2024-01-27T03:09:41;5.90;99.90
82782;DHT22;72517;47.260;11.422;2024-01-27T03:12:08;5.80;99.90
82782;DHT22;72517;47.260;11.422;2024-01-27T03:14:35;5.80;99.90
82782;DHT22;72517;47.260;11.422;2024-01-27T03:17:02;5.70;99.90
82782;DHT22;72517;47.260;11.422;2024-01-27T03:19:29;5.70;99.90
82782;DHT22;72517;47.260;11.422;2024-01-27T03:21:56;5.80;99.90
82782;DHT22;72517;47.260;11.422;2024-01-27T03:24:23;5.80;99.90
82782;DHT22;72517;47.260;11.422;2024-01-27T03:26:50;5.80;99.90
82782;DHT22;72517;47.260;11.422;2024-01-27T03:29:16;5.80;99.90
82782;DHT22;72517;47.260;11.422;2024-01-27T03:31:43;5.80;99.90
82782;DHT22;72517;47.260;11.422;2024-01-27T03:34:10;5.80;99.90
82782;DHT22;72517;47.260;11.422;2024-01-27T03:36:37;5.80;99.90
82782;DHT22;72517;47.260;11.422;2024-01-27T03:39:04;5.80;99.90
82782;DHT22;72517;47.260;11.422;2024-01-27T03:41:33;5.80;99.90
82782;DHT22;72517;47.260;11.422;2024-01-27T03:44:00;5.80;99.90
82782;DHT22;72517;47.260;11.422;2024-01-27T03:46:27;5.70;99.90
82782;DHT22;72517;47.260;11.422;2024-01-27T03:48:54;5.60;99.90
82782;DHT22;72517;47.260;11.422;2024-01-27T03:51:21;5.60;99.90
82782;DHT22;72517;47.260;11.422;2024-01-27T03:53:48;5.50;99.90
82782;DHT22;72517;47.260;11.422;2024-01-27T03:56:15;5.50;99.90
82782;DHT22;72517;47.260;11.422;2024-01-27T03:58:42;5.50;99.90
82782;DHT22;72517;47.260;11.422;2024-01-27T04:01:09;5.40;99.90
82782;DHT22;72517;47.260;11.422;2024-01-27T04:03:36;5.40;99.90
82782;DHT22;72517;47.260;11.422;2024-01-27T04:06:03;5.30;99.90
82782;DHT22;72517;47.260;11.422;2024-01-27T04:08:30;5.30;99.90
82782;DHT22;72517;47.260;11.422;2024-01-27T04:10:57;5.30;99.90
82782;DHT22;72517;47.260;11.422;2024-01-27T04:13:24;5.30;99.90
82782;DHT22;72517;47.260;11.422;2024-01-27T04:15:51;5.30;99.90
82782;DHT22;72517;47.260;11.422;2024-01-27T04:18:19;5.30;99.90
82782;DHT22;72517;47.260;11.422;2024-01-27T04:20:46;5.20;99.90
82782;DHT22;72517;47.260;11.422;2024-01-27T04:23:14;5.10;99.90
82782;DHT22;72517;47.260;11.422;2024-01-27T04:25:41;5.00;99.90
82782;DHT22;72517;47.260;11.422;2024-01-27T04:28:08;5.00;99.90
82782;DHT22;72517;47.260;11.422;2024-01-27T04:30:37;5.00;99.90
82782;DHT22;72517;47.260;11.422;2024-01-27T04:33:04;4.90;99.90
82782;DHT22;72517;47.260;11.422;2024-01-27T04:35:32;4.90;99.90
82782;DHT22;72517;47.260;11.422;2024-01-27T04:37:59;4.90;99.90
82782;DHT22;72517;47.260;11.422;2024-01-27T04:40:26;4.80;99.90
82782;DHT22;72517;47.260;11.422;2024-01-27T04:42:53;4.90;99.90
82782;DHT22;72517;47.260;11.422;2024-01-27T04:45:20;4.80;99.90
82782;DHT22;72517;47.260;11.422;2024-01-27T04:47:47;4.80;99.90
82782;DHT22;72517;47.260;11.422;2024-01-27T04:50:14;4.80;99.90
82782;DHT22;72517;47.260;11.422;2024-01-27T04:52:41;4.80;99.90
82782;DHT22;72517;47.260;11.422;2024-01-27T04:55:08;4.80;99.90
82782;DHT22;72517;47.260;11.422;2024-01-27T04:57:34;4.80;99.90
82782;DHT22;72517;47.260;11.422;2024-01-27T05:00:01;4.80;99.90
82782;DHT22;72517;47.260;11.422;2024-01-27T05:02:32;4.80;99.90
82782;DHT22;72517;47.260;11.422;2024-01-27T05:05:00;4.70;99.90
82782;DHT22;72517;47.260;11.422;2024-01-27T05:07:28;4.60;99.90
82782;DHT22;72517;47.260;11.422;2024-01-27T05:09:55;4.60;99.90
82782;DHT22;72517;47.260;11.422;2024-01-27T05:12:22;4.50;99.90
82782;DHT22;72517;47.260;11.422;2024-01-27T05:14:49;4.50;99.90
82782;DHT22;72517;47.260;11.422;2024-01-27T05:17:16;4.40;99.90
82782;DHT22;72517;47.260;11.422;2024-01-27T05:19:44;4.40;99.90
82782;DHT22;72517;47.260;11.422;2024-01-27T05:22:10;4.30;99.90
82782;DHT22;72517;47.260;11.422;2024-01-27T05:24:37;4.30;99.90
82782;DHT22;72517;47.260;11.422;2024-01-27T05:27:04;4.30;99.90
82782;DHT22;72517;47.260;11.422;2024-01-27T05:29:31;4.30;99.90
82782;DHT22;72517;47.260;11.422;2024-01-27T05:31:58;4.30;99.90
82782;DHT22;72517;47.260;11.422;2024-01-27T05:34:25;4.30;99.90
82782;DHT22;72517;47.260;11.422;2024-01-27T05:36:52;4.30;99.90
82782;DHT22;72517;47.260;11.422;2024-01-27T05:39:19;4.30;99.90
82782;DHT22;72517;47.260;11.422;2024-01-27T05:41:46;4.30;99.90
82782;DHT22;72517;47.260;11.422;2024-01-27T05:44:12;4.40;99.90
82782;DHT22;72517;47.260;11.422;2024-01-27T05:46:39;4.40;99.90
82782;DHT22;72517;47.260;11.422;2024-01-27T05:49:06;4.40;99.90
82782;DHT22;72517;47.260;11.422;2024-01-27T05:51:33;4.50;99.90
82782;DHT22;72517;47.260;11.422;2024-01-27T05:54:00;4.40;99.90
82782;DHT22;72517;47.260;11.422;2024-01-27T05:56:27;4.40;99.90
82782;DHT22;72517;47.260;11.422;2024-01-27T05:58:54;4.40;99.90
82782;DHT22;72517;47.260;11.422;2024-01-27T06:01:21;4.40;99.90
82782;DHT22;72517;47.260;11.422;2024-01-27T06:03:48;4.40;99.90
82782;DHT22;72517;47.260;11.422;2024-01-27T06:06:15;4.40;99.90
82782;DHT22;72517;47.260;11.422;2024-01-27T06:08:42;4.50;99.90
82782;DHT22;72517;47.260;11.422;2024-01-27T06:11:10;4.50;99.90
82782;DHT22;72517;47.260;11.422;2024-01-27T06:13:37;4.60;99.90
82782;DHT22;72517;47.260;11.422;2024-01-27T06:16:09;4.60;99.90
82782;DHT22;72517;47.260;11.422;2024-01-27T06:18:36;4.70;99.90
82782;DHT22;72517;47.260;11.422;2024-01-27T06:21:05;4.70;99.90
82782;DHT22;72517;47.260;11.422;2024-01-27T06:23:32;4.80;99.90
82782;DHT22;72517;47.260;11.422;2024-01-27T06:25:59;4.80;99.90
82782;DHT22;72517;47.260;11.422;2024-01-27T06:28:25;4.80;99.90
82782;DHT22;72517;47.260;11.422;2024-01-27T06:30:53;4.80;99.90
82782;DHT22;72517;47.260;11.422;2024-01-27T06:33:19;4.80;99.90
82782;DHT22;72517;47.260;11.422;2024-01-27T06:35:47;4.80;99.90
82782;DHT22;72517;47.260;11.422;2024-01-27T06:38:14;4.90;99.90
82782;DHT22;72517;47.260;11.422;2024-01-27T06:40:40;4.90;99.90
82782;DHT22;72517;47.260;11.422;2024-01-27T06:43:08;4.90;99.90
82782;DHT22;72517;47.260;11.422;2024-01-27T06:45:35;4.90;99.90
82782;DHT22;72517;47.260;11.422;2024-01-27T06:48:02;4.90;99.90
82782;DHT22;72517;47.260;11.422;2024-01-27T06:50:29;5.00;99.90
82782;DHT22;72517;47.260;11.422;2024-01-27T06:52:56;4.90;99.90
82782;DHT22;72517;47.260;11.422;2024-01-27T06:55:23;4.90;99.90
82782;DHT22;72517;47.260;11.422;2024-01-27T06:57:50;4.90;99.90
82782;DHT22;72517;47.260;11.422;2024-01-27T07:00:17;4.90;99.90
82782;DHT22;72517;47.260;11.422;2024-01-27T07:02:44;4.80;99.90
82782;DHT22;72517;47.260;11.422;2024-01-27T07:05:11;4.80;99.90
82782;DHT22;72517;47.260;11.422;2024-01-27T07:07:40;4.80;99.90
82782;DHT22;72517;47.260;11.422;2024-01-27T07:10:07;4.80;99.90
82782;DHT22;72517;47.260;11.422;2024-01-27T07:12:34;4.70;99.90
82782;DHT22;72517;47.260;11.422;2024-01-27T07:15:02;4.70;99.90
82782;DHT22;72517;47.260;11.422;2024-01-27T07:17:29;4.70;99.90
82782;DHT22;72517;47.260;11.422;2024-01-27T07:19:56;4.70;99.90
82782;DHT22;72517;47.260;11.422;2024-01-27T07:22:23;4.70;99.90
82782;DHT22;72517;47.260;11.422;2024-01-27T07:24:50;4.70;99.90
82782;DHT22;72517;47.260;11.422;2024-01-27T07:27:17;4.70;99.90
82782;DHT22;72517;47.260;11.422;2024-01-27T07:29:44;4.70;99.90
82782;DHT22;72517;47.260;11.422;2024-01-27T07:32:11;4.60;99.90
82782;DHT22;72517;47.260;11.422;2024-01-27T07:34:45;4.60;99.90
82782;DHT22;72517;47.260;11.422;2024-01-27T07:37:12;4.70;99.90
82782;DHT22;72517;47.260;11.422;2024-01-27T07:39:38;4.80;99.90
82782;DHT22;72517;47.260;11.422;2024-01-27T07:42:06;4.80;99.90
82782;DHT22;72517;47.260;11.422;2024-01-27T07:44:32;5.00;99.90
82782;DHT22;72517;47.260;11.422;2024-01-27T07:46:59;5.10;99.90
82782;DHT22;72517;47.260;11.422;2024-01-27T07:49:26;5.20;99.90
82782;DHT22;72517;47.260;11.422;2024-01-27T07:51:53;5.40;99.90
82782;DHT22;72517;47.260;11.422;2024-01-27T07:54:20;5.70;99.90
82782;DHT22;72517;47.260;11.422;2024-01-27T07:56:48;5.90;99.90
82782;DHT22;72517;47.260;11.422;2024-01-27T07:59:15;5.90;99.90
82782;DHT22;72517;47.260;11.422;2024-01-27T08:01:42;6.10;99.90
82782;DHT22;72517;47.260;11.422;2024-01-27T08:04:09;6.30;99.90
82782;DHT22;72517;47.260;11.422;2024-01-27T08:06:46;6.50;99.90
82782;DHT22;72517;47.260;11.422;2024-01-27T08:09:14;6.70;99.90
82782;DHT22;72517;47.260;11.422;2024-01-27T08:11:41;6.80;99.90
82782;DHT22;72517;47.260;11.422;2024-01-27T08:14:08;6.80;99.90
82782;DHT22;72517;47.260;11.422;2024-01-27T08:16:35;6.90;99.90
82782;DHT22;72517;47.260;11.422;2024-01-27T08:19:02;6.90;99.90
82782;DHT22;72517;47.260;11.422;2024-01-27T08:21:30;7.80;99.90
82782;DHT22;72517;47.260;11.422;2024-01-27T08:23:57;9.60;99.90
82782;DHT22;72517;47.260;11.422;2024-01-27T08:26:24;12.00;91.10
82782;DHT22;72517;47.260;11.422;2024-01-27T08:28:51;14.50;77.00
82782;DHT22;72517;47.260;11.422;2024-01-27T08:31:19;16.60;65.10
82782;DHT22;72517;47.260;11.422;2024-01-27T08:33:46;16.90;57.40
82782;DHT22;72517;47.260;11.422;2024-01-27T08:36:14;16.00;54.20
82782;DHT22;72517;47.260;11.422;2024-01-27T08:38:41;15.00;54.40
82782;DHT22;72517;47.260;11.422;2024-01-27T08:41:08;13.70;54.30
82782;DHT22;72517;47.260;11.422;2024-01-27T08:43:35;12.90;56.80
82782;DHT22;72517;47.260;11.422;2024-01-27T08:46:02;12.20;59.20
82782;DHT22;72517;47.260;11.422;2024-01-27T08:48:29;12.10;60.90
82782;DHT22;72517;47.260;11.422;2024-01-27T08:50:59;12.40;61.20
82782;DHT22;72517;47.260;11.422;2024-01-27T08:53:26;12.20;61.30
82782;DHT22;72517;47.260;11.422;2024-01-27T08:55:53;12.90;61.80
82782;DHT22;72517;47.260;11.422;2024-01-27T08:58:19;12.60;61.10
82782;DHT22;72517;47.260;11.422;2024-01-27T09:00:46;12.30;62.10
82782;DHT22;72517;47.260;11.422;2024-01-27T09:03:13;12.40;62.00
82782;DHT22;72517;47.260;11.422;2024-01-27T09:05:40;12.30;61.40
82782;DHT22;72517;47.260;11.422;2024-01-27T09:08:09;12.30;62.50
82782;DHT22;72517;47.260;11.422;2024-01-27T09:10:36;12.20;62.50
82782;DHT22;72517;47.260;11.422;2024-01-27T09:13:03;12.10;62.40
82782;DHT22;72517;47.260;11.422;2024-01-27T09:15:31;12.00;63.50
82782;DHT22;72517;47.260;11.422;2024-01-27T09:17:58;12.10;64.40
82782;DHT22;72517;47.260;11.422;2024-01-27T09:20:24;12.80;63.40
82782;DHT22;72517;47.260;11.422;2024-01-27T09:22:51;12.70;61.40
82782;DHT22;72517;47.260;11.422;2024-01-27T09:25:18;12.90;60.80
82782;DHT22;72517;47.260;11.422;2024-01-27T09:27:45;13.00;60.50
82782;DHT22;72517;47.260;11.422;2024-01-27T09:30:12;13.10;59.90
82782;DHT22;72517;47.260;11.422;2024-01-27T09:32:39;13.00;59.60
82782;DHT22;72517;47.260;11.422;2024-01-27T09:35:06;12.80;59.20
82782;DHT22;72517;47.260;11.422;2024-01-27T09:37:33;12.60;60.20
82782;DHT22;72517;47.260;11.422;2024-01-27T09:40:00;12.40;59.90
82782;DHT22;72517;47.260;11.422;2024-01-27T09:42:28;12.10;59.90
82782;DHT22;72517;47.260;11.422;2024-01-27T09:44:56;11.80;60.50
82782;DHT22;72517;47.260;11.422;2024-01-27T09:47:24;11.90;61.20
82782;DHT22;72517;47.260;11.422;2024-01-27T09:49:51;11.80;60.80
82782;DHT22;72517;47.260;11.422;2024-01-27T09:52:18;11.60;60.90
82782;DHT22;72517;47.260;11.422;2024-01-27T09:54:45;11.60;60.90
82782;DHT22;72517;47.260;11.422;2024-01-27T09:57:11;11.80;61.50
82782;DHT22;72517;47.260;11.422;2024-01-27T09:59:41;12.10;60.90
82782;DHT22;72517;47.260;11.422;2024-01-27T10:02:11;12.20;60.70
82782;DHT22;72517;47.260;11.422;2024-01-27T10:04:40;12.70;60.20
82782;DHT22;72517;47.260;11.422;2024-01-27T10:07:08;13.50;59.60
82782;DHT22;72517;47.260;11.422;2024-01-27T10:09:34;14.20;57.70
82782;DHT22;72517;47.260;11.422;2024-01-27T10:12:02;14.10;55.90
82782;DHT22;72517;47.260;11.422;2024-01-27T10:14:42;14.10;55.60
82782;DHT22;72517;47.260;11.422;2024-01-27T10:17:23;13.80;55.50
82782;DHT22;72517;47.260;11.422;2024-01-27T10:20:05;13.20;55.30
82782;DHT22;72517;47.260;11.422;2024-01-27T10:22:40;13.00;57.00
82782;DHT22;72517;47.260;11.422;2024-01-27T10:25:08;12.70;57.60
82782;DHT22;72517;47.260;11.422;2024-01-27T10:27:35;12.50;57.10
82782;DHT22;72517;47.260;11.422;2024-01-27T10:30:03;12.30;58.10
82782;DHT22;72517;47.260;11.422;2024-01-27T10:32:30;12.20;58.40
82782;DHT22;72517;47.260;11.422;2024-01-27T10:35:07;12.00;59.50
82782;DHT22;72517;47.260;11.422;2024-01-27T10:37:35;11.80;60.20
82782;DHT22;72517;47.260;11.422;2024-01-27T10:40:07;11.60;60.30
82782;DHT22;72517;47.260;11.422;2024-01-27T10:42:35;11.20;61.20
82782;DHT22;72517;47.260;11.422;2024-01-27T10:45:03;10.80;62.00
82782;DHT22;72517;47.260;11.422;2024-01-27T10:47:32;10.70;62.70
82782;DHT22;72517;47.260;11.422;2024-01-27T10:50:00;10.70;63.30
82782;DHT22;72517;47.260;11.422;2024-01-27T10:52:38;10.80;63.00
82782;DHT22;72517;47.260;11.422;2024-01-27T10:55:07;11.10;62.50
82782;DHT22;72517;47.260;11.422;2024-01-27T10:57:39;11.30;62.00
82782;DHT22;72517;47.260;11.422;2024-01-27T11:00:07;11.70;60.70
82782;DHT22;72517;47.260;11.422;2024-01-27T11:02:35;12.00;60.30
82782;DHT22;72517;47.260;11.422;2024-01-27T11:05:05;12.30;59.70
82782;DHT22;72517;47.260;11.422;2024-01-27T11:07:34;12.50;58.60
82782;DHT22;72517;47.260;11.422;2024-01-27T11:10:01;13.20;58.30
82782;DHT22;72517;47.260;11.422;2024-01-27T11:12:28;15.20;57.70
82782;DHT22;72517;47.260;11.422;2024-01-27T11:14:56;20.00;51.70
82782;DHT22;72517;47.260;11.422;2024-01-27T11:17:24;25.10;43.50
82782;DHT22;72517;47.260;11.422;2024-01-27T11:19:51;29.30;35.70
82782;DHT22;72517;47.260;11.422;2024-01-27T11:22:28;32.50;30.50
82782;DHT22;72517;47.260;11.422;2024-01-27T11:25:07;35.10;28.00
82782;DHT22;72517;47.260;11.422;2024-01-27T11:27:34;36.40;26.00
82782;DHT22;72517;47.260;11.422;2024-01-27T11:30:02;37.80;24.60
82782;DHT22;72517;47.260;11.422;2024-01-27T11:32:30;38.70;23.70
82782;DHT22;72517;47.260;11.422;2024-01-27T11:35:01;39.70;22.90
82782;DHT22;72517;47.260;11.422;2024-01-27T11:37:30;41.10;22.90
82782;DHT22;72517;47.260;11.422;2024-01-27T11:40:04;42.10;22.30
82782;DHT22;72517;47.260;11.422;2024-01-27T11:42:33;43.00;21.80
82782;DHT22;72517;47.260;11.422;2024-01-27T11:44:59;38.90;20.90
82782;DHT22;72517;47.260;11.422;2024-01-27T11:47:28;35.00;22.00
82782;DHT22;72517;47.260;11.422;2024-01-27T11:49:56;32.00;23.80
82782;DHT22;72517;47.260;11.422;2024-01-27T11:52:24;29.60;25.30
82782;DHT22;72517;47.260;11.422;2024-01-27T11:54:55;27.20;26.10
82782;DHT22;72517;47.260;11.422;2024-01-27T11:57:22;25.30;27.80
82782;DHT22;72517;47.260;11.422;2024-01-27T11:59:50;23.30;28.80
82782;DHT22;72517;47.260;11.422;2024-01-27T12:02:18;22.10;30.00
82782;DHT22;72517;47.260;11.422;2024-01-27T12:04:45;22.00;30.70
82782;DHT22;72517;47.260;11.422;2024-01-27T12:07:12;24.50;31.40
82782;DHT22;72517;47.260;11.422;2024-01-27T12:09:38;28.90;28.50
82782;DHT22;72517;47.260;11.422;2024-01-27T12:12:06;31.40;25.80
82782;DHT22;72517;47.260;11.422;2024-01-27T12:14:44;30.20;24.80
82782;DHT22;72517;47.260;11.422;2024-01-27T12:17:11;29.40;25.80
82782;DHT22;72517;47.260;11.422;2024-01-27T12:19:39;29.00;25.60
82782;DHT22;72517;47.260;11.422;2024-01-27T12:24:47;27.30;26.50
82782;DHT22;72517;47.260;11.422;2024-01-27T12:27:15;25.80;27.00
82782;DHT22;72517;47.260;11.422;2024-01-27T12:29:43;27.50;27.90
82782;DHT22;72517;47.260;11.422;2024-01-27T12:32:09;31.20;26.90
82782;DHT22;72517;47.260;11.422;2024-01-27T12:34:40;32.70;24.90
82782;DHT22;72517;47.260;11.422;2024-01-27T12:37:08;35.70;23.90
82782;DHT22;72517;47.260;11.422;2024-01-27T12:39:37;36.00;22.60
82782;DHT22;72517;47.260;11.422;2024-01-27T12:42:04;36.20;22.90
82782;DHT22;72517;47.260;11.422;2024-01-27T12:44:31;37.10;22.50
82782;DHT22;72517;47.260;11.422;2024-01-27T12:46:58;37.00;21.90
82782;DHT22;72517;47.260;11.422;2024-01-27T12:49:26;37.20;22.10
82782;DHT22;72517;47.260;11.422;2024-01-27T12:51:53;38.90;21.90
82782;DHT22;72517;47.260;11.422;2024-01-27T12:54:20;39.70;21.50
82782;DHT22;72517;47.260;11.422;2024-01-27T12:56:47;40.80;21.40
82782;DHT22;72517;47.260;11.422;2024-01-27T12:59:14;39.90;20.70
82782;DHT22;72517;47.260;11.422;2024-01-27T13:01:41;39.80;20.80
82782;DHT22;72517;47.260;11.422;2024-01-27T13:04:08;39.60;20.90
82782;DHT22;72517;47.260;11.422;2024-01-27T13:06:35;39.90;20.90
82782;DHT22;72517;47.260;11.422;2024-01-27T13:09:03;38.30;21.10
82782;DHT22;72517;47.260;11.422;2024-01-27T13:11:30;38.80;21.80
82782;DHT22;72517;47.260;11.422;2024-01-27T13:13:57;39.30;21.40
82782;DHT22;72517;47.260;11.422;2024-01-27T13:16:24;39.60;21.00
82782;DHT22;72517;47.260;11.422;2024-01-27T13:18:51;37.90;20.70
82782;DHT22;72517;47.260;11.422;2024-01-27T13:21:18;35.60;21.60
82782;DHT22;72517;47.260;11.422;2024-01-27T13:23:44;32.80;22.10
82782;DHT22;72517;47.260;11.422;2024-01-27T13:26:11;29.60;23.50
82782;DHT22;72517;47.260;11.422;2024-01-27T13:28:38;27.10;24.90
82782;DHT22;72517;47.260;11.422;2024-01-27T13:31:05;25.10;26.30
82782;DHT22;72517;47.260;11.422;2024-01-27T13:33:32;23.10;27.20
82782;DHT22;72517;47.260;11.422;2024-01-27T13:36:01;22.20;28.10
82782;DHT22;72517;47.260;11.422;2024-01-27T13:38:27;21.20;28.80
82782;DHT22;72517;47.260;11.422;2024-01-27T13:40:54;19.60;29.50
82782;DHT22;72517;47.260;11.422;2024-01-27T13:43:21;18.60;30.90
82782;DHT22;72517;47.260;11.422;2024-01-27T13:45:48;17.60;31.80
82782;DHT22;72517;47.260;11.422;2024-01-27T13:48:16;16.90;32.60
82782;DHT22;72517;47.260;11.422;2024-01-27T13:50:43;16.40;33.50
82782;DHT22;72517;47.260;11.422;2024-01-27T13:53:11;16.20;34.80
82782;DHT22;72517;47.260;11.422;2024-01-27T13:55:37;15.70;35.60
82782;DHT22;72517;47.260;11.422;2024-01-27T13:58:06;15.30;36.30
82782;DHT22;72517;47.260;11.422;2024-01-27T14:00:33;15.30;36.80
82782;DHT22;72517;47.260;11.422;2024-01-27T14:03:01;14.90;38.00
82782;DHT22;72517;47.260;11.422;2024-01-27T14:05:27;14.60;39.50
82782;DHT22;72517;47.260;11.422;2024-01-27T14:07:55;14.40;41.10
82782;DHT22;72517;47.260;11.422;2024-01-27T14:10:22;15.00;42.40
82782;DHT22;72517;47.260;11.422;2024-01-27T14:12:50;16.20;41.30
82782;DHT22;72517;47.260;11.422;2024-01-27T14:15:17;18.10;39.40
82782;DHT22;72517;47.260;11.422;2024-01-27T14:17:44;19.80;36.60
82782;DHT22;72517;47.260;11.422;2024-01-27T14:20:11;20.70;34.20
82782;DHT22;72517;47.260;11.422;2024-01-27T14:22:38;20.70;34.00
82782;DHT22;72517;47.260;11.422;2024-01-27T14:25:05;20.30;33.30
82782;DHT22;72517;47.260;11.422;2024-01-27T14:27:33;19.40;34.00
82782;DHT22;72517;47.260;11.422;2024-01-27T14:30:00;18.20;35.80
82782;DHT22;72517;47.260;11.422;2024-01-27T14:32:27;17.30;36.50
82782;DHT22;72517;47.260;11.422;2024-01-27T14:34:54;16.30;38.10
82782;DHT22;72517;47.260;11.422;2024-01-27T14:37:22;15.80;39.80
82782;DHT22;72517;47.260;11.422;2024-01-27T14:39:49;15.90;40.10
82782;DHT22;72517;47.260;11.422;2024-01-27T14:42:16;15.80;40.60
82782;DHT22;72517;47.260;11.422;2024-01-27T14:44:43;16.00;40.20
82782;DHT22;72517;47.260;11.422;2024-01-27T14:47:11;15.80;39.40
82782;DHT22;72517;47.260;11.422;2024-01-27T14:49:39;15.70;39.10
82782;DHT22;72517;47.260;11.422;2024-01-27T14:52:06;15.40;39.40
82782;DHT22;72517;47.260;11.422;2024-01-27T14:54:34;15.20;39.40
82782;DHT22;72517;47.260;11.422;2024-01-27T14:57:02;14.50;40.00
82782;DHT22;72517;47.260;11.422;2024-01-27T14:59:30;13.70;41.00
82782;DHT22;72517;47.260;11.422;2024-01-27T15:01:57;13.00;42.40
82782;DHT22;72517;47.260;11.422;2024-01-27T15:04:25;12.50;43.40
82782;DHT22;72517;47.260;11.422;2024-01-27T15:06:55;12.10;44.40
82782;DHT22;72517;47.260;11.422;2024-01-27T15:09:23;11.70;45.50
82782;DHT22;72517;47.260;11.422;2024-01-27T15:11:51;11.00;46.90
82782;DHT22;72517;47.260;11.422;2024-01-27T15:14:18;10.70;48.60
82782;DHT22;72517;47.260;11.422;2024-01-27T15:16:48;10.50;51.50
82782;DHT22;72517;47.260;11.422;2024-01-27T15:19:15;10.10;52.20
82782;DHT22;72517;47.260;11.422;2024-01-27T15:21:42;9.80;54.80
82782;DHT22;72517;47.260;11.422;2024-01-27T15:24:09;9.70;56.10
82782;DHT22;72517;47.260;11.422;2024-01-27T15:26:36;9.60;57.60
82782;DHT22;72517;47.260;11.422;2024-01-27T15:29:03;9.50;59.40